Time;durP1;ratioP1;P1;durP2;ratioP2;P2;SDS_P1;SDS_P2;PMS_P1;PMS_P2;Temp;Humidity;BMP_temperature;BMP_pressure;BME280_temperature;BME280_humidity;BME280_pressure;Samples;Min_cycle;Max_cycle;Signal;HPM_P1;HPM_P2
2022/07/30 00:01:15;;;;;;;4.13;2.70;;;;;;;19.75;54.73;100398.47;5108542;28;20043;-46
2022/07/30 00:03:42;;;;;;;4.20;3.05;;;;;;;19.70;54.57;100390.78;5108366;27;20052;-43
2022/07/30 00:06:09;;;;;;;7.30;2.85;;;;;;;19.68;54.64;100384.69;5111010;27;20043;-47
2022/07/30 00:08:35;;;;;;;7.68;3.00;;;;;;;19.64;54.97;100383.97;5110098;28;20113;-48
2022/07/30 00:11:02;;;;;;;9.55;3.13;;;;;;;19.65;54.88;100379.53;5107160;27;20043;-47
2022/07/30 00:13:29;;;;;;;5.03;2.97;;;;;;;19.64;55.03;100372.59;5105956;28;20048;-42
2022/07/30 00:15:55;;;;;;;6.22;2.85;;;;;;;19.63;55.06;100373.50;5109579;27;20048;-45
2022/07/30 00:18:22;;;;;;;2.80;2.30;;;;;;;19.61;55.30;100367.44;5108432;27;20945;-44
2022/07/30 00:20:49;;;;;;;8.60;3.22;;;;;;;19.59;54.90;100367.47;5108216;27;20093;-43
2022/07/30 00:23:15;;;;;;;6.13;2.55;;;;;;;19.59;54.99;100356.13;5109741;27;20035;-43
2022/07/30 00:25:43;;;;;;;4.07;2.70;;;;;;;19.56;54.81;100364.13;5108547;28;20055;-45
2022/07/30 00:28:11;;;;;;;4.63;3.30;;;;;;;19.51;55.17;100354.63;5107457;28;20050;-45
2022/07/30 00:30:39;;;;;;;10.55;3.75;;;;;;;19.49;54.98;100355.59;5105267;28;20050;-44
2022/07/30 00:33:06;;;;;;;6.70;2.97;;;;;;;19.46;55.26;100350.44;5104567;28;20146;-43
2022/07/30 00:35:34;;;;;;;7.40;3.25;;;;;;;19.46;56.01;100353.09;5103050;28;20134;-44
2022/07/30 00:38:00;;;;;;;4.45;2.78;;;;;;;19.42;55.46;100348.84;5109409;28;20047;-43
2022/07/30 00:40:27;;;;;;;6.50;3.03;;;;;;;19.41;55.60;100347.97;5107354;28;20133;-43
2022/07/30 00:42:54;;;;;;;3.88;2.63;;;;;;;19.43;55.46;100351.44;5111413;28;20044;-44
2022/07/30 00:45:21;;;;;;;6.35;3.05;;;;;;;19.43;55.56;100343.53;5107318;28;20043;-45
2022/07/30 00:47:48;;;;;;;4.40;2.58;;;;;;;19.43;55.61;100342.69;5105098;28;20105;-45
2022/07/30 00:50:15;;;;;;;4.85;2.78;;;;;;;19.42;55.90;100343.59;5105849;28;20071;-48
2022/07/30 00:52:42;;;;;;;6.05;3.60;;;;;;;19.42;55.34;100344.44;5105179;28;20051;-43
2022/07/30 00:55:11;;;;;;;6.30;3.42;;;;;;;19.41;55.62;100342.72;5087140;28;20047;-43
2022/07/30 00:57:39;;;;;;;8.15;3.33;;;;;;;19.44;55.54;100347.00;5105444;28;20036;-43
2022/07/30 01:00:09;;;;;;;4.60;2.92;;;;;;;19.44;55.74;100342.63;5104901;28;20048;-44
2022/07/30 01:02:36;;;;;;;3.85;2.40;;;;;;;19.40;55.17;100338.41;5107080;28;20490;-42
2022/07/30 01:05:04;;;;;;;5.80;2.85;;;;;;;19.34;56.06;100330.72;5105647;28;20043;-42
2022/07/30 01:07:30;;;;;;;4.38;2.88;;;;;;;19.30;55.56;100329.97;5091118;28;20043;-42
2022/07/30 01:09:57;;;;;;;5.07;2.97;;;;;;;19.25;55.46;100327.50;5108491;28;20040;-42
2022/07/30 01:12:25;;;;;;;5.97;3.00;;;;;;;19.24;55.96;100333.69;5102645;28;20051;-42
2022/07/30 01:14:55;;;;;;;3.33;1.80;;;;;;;19.23;55.77;100329.34;5089506;28;20470;-44
2022/07/30 01:17:21;;;;;;;5.20;2.95;;;;;;;19.20;55.93;100329.44;5108858;28;20040;-41
2022/07/30 01:19:51;;;;;;;3.58;3.28;;;;;;;19.18;55.66;100331.25;5108585;28;20109;-41
2022/07/30 01:27:44;;;;;;;5.60;1.95;;;;;;;19.14;56.11;100320.00;5054684;28;20406;-42
2022/07/30 01:30:17;;;;;;;4.30;1.90;;;;;;;19.14;55.99;100319.13;5015819;28;20050;-43
2022/07/30 01:32:46;;;;;;;6.05;1.90;;;;;;;19.12;56.17;100331.47;5003726;28;20046;-42
2022/07/30 01:35:16;;;;;;;3.40;2.10;;;;;;;19.11;55.85;100321.88;5005608;28;20046;-45
2022/07/30 01:37:43;;;;;;;3.38;1.85;;;;;;;19.12;56.32;100339.34;5008807;28;20050;-44
2022/07/30 01:40:11;;;;;;;3.40;2.28;;;;;;;19.12;56.00;100336.72;5006345;28;20466;-42
2022/07/30 01:42:39;;;;;;;5.65;2.78;;;;;;;19.09;56.66;100321.06;5006453;28;20518;-44
2022/07/30 01:45:07;;;;;;;4.72;2.33;;;;;;;19.08;56.42;100322.00;5013412;28;20041;-43
2022/07/30 01:47:37;;;;;;;5.85;2.60;;;;;;;19.06;56.39;100322.03;5006721;28;20437;-44
2022/07/30 01:50:08;;;;;;;5.22;2.90;;;;;;;19.05;56.66;100308.94;5005497;28;20046;-44
2022/07/30 01:52:37;;;;;;;5.95;3.03;;;;;;;19.01;56.45;100314.28;5004290;28;20077;-42
2022/07/30 01:55:07;;;;;;;4.40;1.95;;;;;;;19.00;56.54;100314.34;5004415;28;20461;-43
2022/07/30 01:57:45;;;;;;;7.22;2.70;;;;;;;19.00;56.82;100317.81;5006518;28;20050;-42
2022/07/30 02:00:13;;;;;;;7.53;2.95;;;;;;;19.00;56.70;100316.97;5012924;28;20042;-44
2022/07/30 02:02:40;;;;;;;6.85;2.50;;;;;;;18.98;56.49;100316.16;5008400;28;20050;-41
2022/07/30 02:05:08;;;;;;;4.63;2.63;;;;;;;18.99;56.58;100325.75;5008945;28;20050;-46
2022/07/30 02:07:41;;;;;;;4.45;2.30;;;;;;;18.98;56.31;100317.00;5005278;28;20054;-43
2022/07/30 02:10:18;;;;;;;7.63;2.90;;;;;;;18.95;56.88;100317.09;5005253;28;20046;-43
2022/07/30 02:12:50;;;;;;;5.78;2.40;;;;;;;18.96;56.62;100321.47;5003670;28;20142;-46
2022/07/30 02:15:27;;;;;;;5.75;2.70;;;;;;;18.94;56.65;100312.78;5006422;28;20054;-47
2022/07/30 02:18:01;;;;;;;5.03;3.17;;;;;;;18.94;56.38;100317.16;5001455;28;20101;-49
2022/07/30 02:20:32;;;;;;;4.63;3.00;;;;;;;18.93;56.57;100321.56;5006423;28;20072;-48
2022/07/30 02:23:06;;;;;;;4.40;3.10;;;;;;;18.91;56.56;100320.75;4998901;28;21022;-46
2022/07/30 02:25:34;;;;;;;6.88;2.80;;;;;;;18.90;56.82;100316.41;4996868;28;20046;-43
2022/07/30 02:28:06;;;;;;;3.83;2.45;;;;;;;18.90;56.83;100316.41;5003337;28;20116;-45
2022/07/30 02:30:36;;;;;;;4.57;2.65;;;;;;;18.88;56.51;100313.00;5006934;28;20112;-45
2022/07/30 02:33:07;;;;;;;6.47;2.80;;;;;;;18.85;57.02;100313.09;5008664;28;20539;-43
2022/07/30 02:35:35;;;;;;;4.95;2.63;;;;;;;18.85;57.25;100310.47;4998155;28;20073;-42
2022/07/30 02:38:04;;;;;;;6.80;3.00;;;;;;;18.85;56.97;100313.09;4998634;28;20053;-46
2022/07/30 02:40:31;;;;;;;5.43;2.35;;;;;;;18.84;57.47;100316.59;4990726;28;20058;-44
2022/07/30 02:42:59;;;;;;;4.65;3.08;;;;;;;18.84;57.58;100319.22;4992724;28;20050;-45
2022/07/30 02:45:28;;;;;;;5.65;2.25;;;;;;;18.85;57.30;100313.09;4988811;28;20058;-44
2022/07/30 02:47:59;;;;;;;4.57;2.45;;;;;;;18.85;56.56;100310.47;4973608;28;20058;-43
2022/07/30 02:50:27;;;;;;;5.78;2.33;;;;;;;18.85;57.02;100313.09;4987548;28;20124;-46
2022/07/30 02:52:56;;;;;;;4.95;3.35;;;;;;;18.87;57.44;100308.63;4987903;28;20047;-42
2022/07/30 02:55:25;;;;;;;6.18;2.95;;;;;;;18.88;56.88;100318.25;4986901;28;20077;-48
2022/07/30 02:57:54;;;;;;;6.05;3.20;;;;;;;18.88;57.02;100319.09;5000189;28;20235;-42
2022/07/30 03:00:23;;;;;;;10.40;2.88;;;;;;;18.88;57.42;100315.63;4998552;28;20093;-47
2022/07/30 03:02:51;;;;;;;5.43;3.63;;;;;;;18.87;57.29;100321.75;4991524;28;20057;-43
2022/07/30 03:05:23;;;;;;;6.00;3.78;;;;;;;18.84;57.88;100312.22;4969888;28;20054;-43
2022/07/30 03:07:52;;;;;;;4.88;3.75;;;;;;;18.83;57.45;100309.63;4990978;28;20050;-45
2022/07/30 03:10:19;;;;;;;4.53;3.15;;;;;;;18.81;57.29;100309.69;4987324;28;20076;-46
2022/07/30 03:12:49;;;;;;;4.82;3.33;;;;;;;18.82;57.86;100306.19;4990000;28;20054;-45
2022/07/30 03:15:16;;;;;;;7.07;3.25;;;;;;;18.81;57.20;100300.97;4991484;28;20116;-44
2022/07/30 03:17:45;;;;;;;6.15;3.35;;;;;;;18.81;57.18;100306.22;4985275;28;20050;-47
2022/07/30 03:20:16;;;;;;;5.95;3.15;;;;;;;18.81;57.71;100306.22;5008505;28;20042;-44
2022/07/30 03:22:47;;;;;;;9.38;3.72;;;;;;;18.80;57.61;100299.25;4987282;28;20557;-45
2022/07/30 03:25:17;;;;;;;5.85;3.03;;;;;;;18.80;57.65;100299.25;4993357;28;20479;-46
2022/07/30 03:27:44;;;;;;;5.00;3.38;;;;;;;18.81;57.32;100306.22;5005897;28;20042;-43
2022/07/30 03:30:11;;;;;;;5.22;3.33;;;;;;;18.79;57.01;100302.78;4997036;28;20312;-45
2022/07/30 03:32:39;;;;;;;7.55;2.90;;;;;;;18.79;57.28;100294.91;4989824;28;20054;-46
2022/07/30 03:35:09;;;;;;;7.50;2.95;;;;;;;18.80;57.59;100299.25;4984479;28;20423;-43
2022/07/30 03:37:43;;;;;;;6.72;2.83;;;;;;;18.79;57.42;100293.16;4983168;28;20125;-45
2022/07/30 03:40:12;;;;;;;6.03;3.08;;;;;;;18.79;56.79;100287.03;4996716;28;20196;-41
2022/07/30 03:42:39;;;;;;;4.60;2.83;;;;;;;18.79;56.90;100281.78;4989520;28;20051;-43
2022/07/30 03:45:07;;;;;;;6.10;3.63;;;;;;;18.79;57.10;100281.78;4992323;28;20042;-43
2022/07/30 03:47:37;;;;;;;6.07;2.60;;;;;;;18.79;56.83;100281.78;4994386;28;20080;-43
2022/07/30 03:50:05;;;;;;;7.95;3.13;;;;;;;18.80;57.13;100276.50;4996716;28;20123;-46
2022/07/30 03:52:34;;;;;;;7.00;2.95;;;;;;;18.79;57.28;100273.91;4999117;28;20566;-43
2022/07/30 03:55:02;;;;;;;4.60;3.58;;;;;;;18.80;57.15;100273.00;4985986;28;20046;-46
2022/07/30 03:57:29;;;;;;;5.95;3.60;;;;;;;18.80;56.82;100283.50;4987012;28;20042;-44
2022/07/30 03:59:56;;;;;;;6.22;3.15;;;;;;;18.80;57.47;100275.63;4993276;28;20047;-45
2022/07/30 04:02:23;;;;;;;5.78;3.35;;;;;;;18.81;57.26;100290.47;5002591;28;20475;-42
2022/07/30 04:04:50;;;;;;;5.20;3.28;;;;;;;18.81;57.27;100290.47;4999474;28;20054;-43
2022/07/30 04:07:17;;;;;;;10.70;3.65;;;;;;;18.80;57.59;100291.38;4993383;28;20050;-45
2022/07/30 04:09:44;;;;;;;8.90;3.80;;;;;;;18.80;57.17;100286.13;4999491;28;20486;-43
2022/07/30 04:12:12;;;;;;;8.13;3.08;;;;;;;18.79;57.42;100292.28;5001177;28;20057;-43
2022/07/30 04:14:42;;;;;;;6.18;3.28;;;;;;;18.79;57.27;100284.41;4995128;28;20050;-45
2022/07/30 04:17:18;;;;;;;5.75;3.08;;;;;;;18.75;57.69;100292.38;4995953;28;20454;-45
2022/07/30 04:19:50;;;;;;;5.32;3.45;;;;;;;18.77;57.67;100296.75;4979963;28;20069;-46
2022/07/30 04:22:22;;;;;;;4.68;2.72;;;;;;;18.77;57.74;100302.00;4991841;28;20765;-44
2022/07/30 04:24:50;;;;;;;4.53;3.15;;;;;;;18.75;57.56;100305.50;4994681;28;20057;-43
2022/07/30 04:27:18;;;;;;;5.45;3.33;;;;;;;18.75;57.81;100302.88;4988733;28;20037;-46
2022/07/30 04:29:45;;;;;;;5.68;3.55;;;;;;;18.77;57.52;100304.63;4989799;28;20047;-47
2022/07/30 04:32:12;;;;;;;6.50;3.08;;;;;;;18.76;57.19;100303.75;5000071;28;20045;-43
2022/07/30 04:34:49;;;;;;;5.20;2.95;;;;;;;18.75;57.43;100305.50;4992137;28;20410;-47
2022/07/30 04:37:18;;;;;;;6.28;3.25;;;;;;;18.78;58.07;100303.69;4971255;28;20046;-46
2022/07/30 04:39:45;;;;;;;;;;;;;;;18.59;58.08;100301.66;4993597;28;20042;-46
2022/07/30 04:42:11;;;;;;;8.32;3.42;;;;;;;18.74;57.27;100289.81;4995895;28;19949;-42
2022/07/30 04:44:38;;;;;;;7.97;3.45;;;;;;;18.75;57.59;100297.63;4986246;28;20469;-44
2022/07/30 04:47:05;;;;;;;6.55;3.35;;;;;;;18.77;57.59;100296.75;4990430;28;20054;-46
2022/07/30 04:49:33;;;;;;;4.05;3.10;;;;;;;18.78;57.29;100304.53;4988146;28;20061;-44
2022/07/30 04:52:02;;;;;;;5.53;3.40;;;;;;;18.80;57.51;100304.50;4987822;28;20042;-43
2022/07/30 04:54:39;;;;;;;4.80;3.70;;;;;;;18.77;57.39;100309.88;4995269;28;20058;-45
2022/07/30 04:57:06;;;;;;;8.30;2.88;;;;;;;18.79;57.37;100300.16;4992916;28;20089;-43
2022/07/30 04:59:36;;;;;;;6.38;2.97;;;;;;;18.79;57.53;100298.41;4984943;28;20575;-42
2022/07/30 05:02:05;;;;;;;6.50;3.53;;;;;;;18.80;58.17;100305.34;4991000;28;20053;-42
2022/07/30 05:04:34;;;;;;;9.70;4.07;;;;;;;18.82;58.12;100298.31;4984238;28;20059;-42
2022/07/30 05:07:01;;;;;;;5.55;3.05;;;;;;;18.83;57.86;100309.63;4989156;28;20058;-42
2022/07/30 05:09:30;;;;;;;6.57;3.42;;;;;;;18.84;58.05;100313.97;4985498;28;20078;-43
2022/07/30 05:11:58;;;;;;;8.13;4.10;;;;;;;18.84;58.64;100300.84;4991452;28;20113;-41
2022/07/30 05:14:26;;;;;;;9.93;4.05;;;;;;;18.86;58.19;100304.31;4984791;28;20046;-45
2022/07/30 05:16:53;;;;;;;5.47;3.30;;;;;;;18.87;58.59;100301.63;4990305;28;21591;-45
2022/07/30 05:19:21;;;;;;;9.25;2.72;;;;;;;18.91;58.34;100296.28;4988506;28;20054;-41
2022/07/30 05:21:48;;;;;;;7.88;3.42;;;;;;;18.93;58.33;100300.56;4983990;28;20510;-41
2022/07/30 05:24:14;;;;;;;5.47;3.58;;;;;;;18.92;57.95;100301.47;4987347;28;20108;-43
2022/07/30 05:26:41;;;;;;;5.22;3.30;;;;;;;18.95;58.48;100309.22;4992117;28;20054;-43
2022/07/30 05:29:08;;;;;;;5.35;2.97;;;;;;;18.99;58.27;100305.59;4990787;28;20488;-43
2022/07/30 05:31:43;;;;;;;5.18;2.83;;;;;;;19.01;58.31;100310.78;4988521;28;20145;-43
2022/07/30 05:34:10;;;;;;;4.70;3.17;;;;;;;19.02;58.46;100310.75;4989010;28;20478;-45
2022/07/30 05:36:37;;;;;;;5.82;2.60;;;;;;;19.02;58.82;100304.66;4986704;28;20358;-43
2022/07/30 05:39:04;;;;;;;7.43;3.20;;;;;;;19.04;58.47;100307.22;4991168;28;20082;-45
2022/07/30 05:41:31;;;;;;;9.13;3.22;;;;;;;19.04;58.10;100308.06;4993912;28;20112;-43
2022/07/30 05:43:59;;;;;;;7.50;2.90;;;;;;;19.07;58.28;100308.00;4979031;28;20046;-43
2022/07/30 05:46:27;;;;;;;3.30;2.72;;;;;;;19.11;58.48;100308.75;4979749;28;20079;-44
2022/07/30 05:48:53;;;;;;;4.88;3.05;;;;;;;19.14;58.18;100309.50;4980426;28;20106;-47
2022/07/30 05:51:21;;;;;;;4.53;2.70;;;;;;;19.18;59.04;100305.00;4985886;28;20065;-43
2022/07/30 05:53:48;;;;;;;4.65;2.80;;;;;;;19.23;59.11;100313.59;4987301;28;20117;-41
2022/07/30 05:56:14;;;;;;;4.70;3.50;;;;;;;19.25;58.62;100317.00;4986940;28;20065;-42
2022/07/30 05:58:41;;;;;;;4.63;2.90;;;;;;;19.28;58.50;100310.78;4987764;28;20053;-42
2022/07/30 06:01:08;;;;;;;4.80;2.97;;;;;;;19.32;58.74;100314.19;4991901;28;20108;-43
2022/07/30 06:03:35;;;;;;;4.60;2.72;;;;;;;19.36;58.90;100318.41;4987798;28;20046;-45
2022/07/30 06:06:03;;;;;;;6.18;3.53;;;;;;;19.39;59.00;100323.56;4989918;28;20486;-44
2022/07/30 06:08:31;;;;;;;5.40;3.58;;;;;;;19.41;58.68;100311.22;4980614;28;20522;-45
2022/07/30 06:10:57;;;;;;;4.57;3.30;;;;;;;19.43;58.56;100313.78;4987798;28;20046;-42
2022/07/30 06:13:24;;;;;;;4.95;3.42;;;;;;;19.46;58.75;100309.31;4993674;28;20069;-43
2022/07/30 06:15:51;;;;;;;5.30;3.42;;;;;;;19.50;58.42;100299.53;4986185;28;20466;-43
2022/07/30 06:18:18;;;;;;;6.35;4.10;;;;;;;19.53;58.38;100302.88;4991919;28;20046;-42
2022/07/30 06:20:50;;;;;;;5.03;2.88;;;;;;;19.59;58.42;100314.94;4986235;28;20375;-45
2022/07/30 06:23:17;;;;;;;4.05;3.17;;;;;;;19.66;58.63;100305.09;4985226;28;20047;-43
2022/07/30 06:25:44;;;;;;;6.32;2.80;;;;;;;19.72;58.29;100302.22;4993530;28;20053;-47
2022/07/30 06:28:11;;;;;;;4.85;2.85;;;;;;;19.78;58.74;100312.50;4992795;28;20104;-44
2022/07/30 06:30:57;;;;;;;3.80;2.83;;;;;;;19.87;58.27;100320.97;4986387;28;20093;-41
2022/07/30 06:33:24;;;;;;;4.35;3.60;;;;;;;19.93;58.50;100318.13;4989955;28;20045;-42
2022/07/30 06:35:51;;;;;;;6.25;3.20;;;;;;;20.00;58.47;100324.03;4980640;28;20050;-43
2022/07/30 06:38:18;;;;;;;6.80;3.85;;;;;;;20.06;58.11;100320.31;4984067;28;20058;-43
2022/07/30 06:40:44;;;;;;;6.03;3.38;;;;;;;20.10;58.26;100308.75;4990940;28;20054;-45
2022/07/30 06:43:11;;;;;;;3.38;2.83;;;;;;;20.13;57.82;100308.66;4987012;28;20406;-47
2022/07/30 06:45:38;;;;;;;5.05;2.90;;;;;;;20.18;57.97;100306.69;4990168;28;20058;-45
2022/07/30 06:48:05;;;;;;;5.45;3.15;;;;;;;20.22;57.83;100313.53;4991047;28;20058;-42
2022/07/30 06:50:32;;;;;;;4.88;3.33;;;;;;;20.28;57.66;100307.19;4986549;28;20399;-44
2022/07/30 06:52:58;;;;;;;5.43;3.08;;;;;;;20.30;57.43;100307.97;4982310;28;20128;-43
2022/07/30 06:55:25;;;;;;;3.88;2.70;;;;;;;20.32;57.46;100310.53;4989121;28;20089;-42
2022/07/30 06:57:51;;;;;;;5.97;2.58;;;;;;;20.35;57.61;100319.16;4990030;28;20360;-42
2022/07/30 07:00:19;;;;;;;5.35;3.03;;;;;;;20.37;57.46;100317.31;4986437;28;20096;-43
2022/07/30 07:02:46;;;;;;;4.18;2.40;;;;;;;20.40;57.32;100316.38;4978908;28;20069;-48
2022/07/30 07:05:13;;;;;;;4.10;2.67;;;;;;;20.43;57.18;100324.13;4978408;28;20050;-46
2022/07/30 07:07:40;;;;;;;3.13;2.25;;;;;;;20.45;56.82;100313.53;4976299;28;20105;-42
2022/07/30 07:10:14;;;;;;;3.83;3.42;;;;;;;20.49;57.10;100316.00;4984122;28;20058;-44
2022/07/30 07:12:41;;;;;;;3.83;2.60;;;;;;;20.52;57.08;100315.00;4985351;28;20042;-44
2022/07/30 07:15:08;;;;;;;4.13;2.30;;;;;;;20.58;57.07;100314.75;4983849;28;20054;-43
2022/07/30 07:17:35;;;;;;;5.60;2.67;;;;;;;20.63;57.14;100314.56;4987101;28;20048;-43
2022/07/30 07:20:03;;;;;;;4.25;2.20;;;;;;;20.66;57.03;100312.69;4978065;28;20042;-43
2022/07/30 07:22:29;;;;;;;9.18;2.55;;;;;;;20.68;57.00;100320.50;4981978;28;20046;-47
2022/07/30 07:24:56;;;;;;;4.40;2.13;;;;;;;20.70;56.73;100318.66;4975837;28;20059;-44
2022/07/30 07:27:23;;;;;;;3.92;2.58;;;;;;;20.72;56.82;100324.72;4984859;28;20046;-43
2022/07/30 07:29:49;;;;;;;5.20;2.72;;;;;;;20.73;56.49;100323.81;4987772;28;20053;-46
2022/07/30 07:32:32;;;;;;;4.93;2.65;;;;;;;20.73;56.46;100333.50;4981318;28;20050;-44
2022/07/30 07:34:59;;;;;;;3.40;2.42;;;;;;;20.75;56.41;100332.50;4981907;28;20054;-46
2022/07/30 07:37:26;;;;;;;5.68;2.65;;;;;;;20.77;56.60;100341.19;4985022;28;20066;-44
2022/07/30 07:39:53;;;;;;;8.25;2.50;;;;;;;20.81;56.50;100334.88;4982095;28;20046;-43
2022/07/30 07:42:20;;;;;;;4.30;2.33;;;;;;;20.85;56.58;100337.38;4982273;28;20104;-46
2022/07/30 07:44:47;;;;;;;3.70;2.95;;;;;;;20.87;56.33;100341.66;4984775;28;20050;-47
2022/07/30 07:47:14;;;;;;;4.22;2.35;;;;;;;20.91;56.12;100345.06;4983131;28;20120;-43
2022/07/30 07:49:41;;;;;;;4.78;2.85;;;;;;;20.95;55.94;100341.38;4978057;28;20073;-46
2022/07/30 07:52:07;;;;;;;4.00;2.85;;;;;;;20.99;56.06;100345.59;4984111;28;20058;-47
2022/07/30 07:54:34;;;;;;;5.55;3.08;;;;;;;21.03;55.83;100341.91;4984343;28;20097;-44
2022/07/30 07:57:02;;;;;;;4.60;3.03;;;;;;;21.12;56.33;100337.19;4985048;28;20562;-45
2022/07/30 07:59:30;;;;;;;4.53;2.63;;;;;;;21.20;56.32;100337.69;4982767;28;20054;-45
2022/07/30 08:02:06;;;;;;;;;;;;;;;21.18;56.17;100334.28;4983358;28;20053;-43
2022/07/30 08:04:34;;;;;;;6.55;3.33;;;;;;;21.34;55.74;100342.38;4982503;28;19926;-45
2022/07/30 08:07:01;;;;;;;5.65;2.97;;;;;;;21.41;55.80;100335.09;4979435;28;20077;-44
2022/07/30 08:09:29;;;;;;;8.40;3.28;;;;;;;21.50;55.79;100345.19;4978117;28;20077;-42
2022/07/30 08:12:11;;;;;;;5.43;2.78;;;;;;;21.51;56.26;100341.63;4984378;28;20524;-44
2022/07/30 08:14:38;;;;;;;6.03;3.13;;;;;;;21.57;56.03;100338.75;4980572;28;20058;-42
2022/07/30 08:17:05;;;;;;;4.07;2.67;;;;;;;21.64;56.11;100338.44;4982101;28;20050;-45
2022/07/30 08:19:33;;;;;;;4.65;3.00;;;;;;;21.71;56.47;100337.25;4983545;28;20054;-42
2022/07/30 08:21:59;;;;;;;5.47;2.80;;;;;;;21.76;55.46;100335.31;4981786;28;20069;-44
2022/07/30 08:24:26;;;;;;;5.88;3.35;;;;;;;21.79;55.48;100327.25;4981161;28;20050;-44
2022/07/30 08:26:53;;;;;;;4.10;2.80;;;;;;;21.81;55.72;100328.06;4978664;28;20465;-49
2022/07/30 08:29:19;;;;;;;5.00;2.13;;;;;;;21.85;55.77;100320.00;4987862;28;20046;-46
2022/07/30 08:31:46;;;;;;;4.00;2.13;;;;;;;21.86;55.86;100324.34;4990171;28;20058;-47
2022/07/30 08:34:13;;;;;;;5.18;2.80;;;;;;;21.86;55.78;100332.25;4990935;28;20089;-47
2022/07/30 08:36:40;;;;;;;4.38;2.40;;;;;;;21.87;55.54;100331.31;4987239;28;20050;-44
2022/07/30 08:39:07;;;;;;;4.20;2.17;;;;;;;21.85;56.19;100333.19;4989603;28;20093;-45
2022/07/30 08:41:35;;;;;;;4.18;2.72;;;;;;;21.83;56.81;100336.75;4989785;28;20129;-44
2022/07/30 08:44:05;;;;;;;3.58;2.25;;;;;;;21.81;56.53;100338.59;4989649;28;20054;-45
2022/07/30 08:46:41;;;;;;;4.40;2.15;;;;;;;21.81;56.82;100333.31;4990388;28;20064;-43
2022/07/30 08:49:14;;;;;;;6.28;2.63;;;;;;;21.85;57.22;100338.47;4988566;28;20393;-45
2022/07/30 08:51:41;;;;;;;4.32;2.42;;;;;;;21.90;56.83;100339.09;4988509;28;20057;-44
2022/07/30 08:54:08;;;;;;;4.45;2.38;;;;;;;21.92;57.37;100331.97;4987996;28;20057;-43
2022/07/30 08:56:35;;;;;;;4.25;1.70;;;;;;;21.93;57.65;100334.56;4987141;28;20506;-44
2022/07/30 08:59:03;;;;;;;3.83;2.65;;;;;;;21.96;57.71;100336.19;4990176;28;20050;-48
2022/07/30 09:01:29;;;;;;;3.58;2.35;;;;;;;21.99;57.89;100341.34;4985413;28;20051;-45
2022/07/30 09:03:56;;;;;;;3.35;1.52;;;;;;;22.01;57.71;100339.47;4990101;28;20081;-43
2022/07/30 09:06:23;;;;;;;3.17;2.20;;;;;;;22.03;57.67;100348.16;4989987;28;20574;-42
2022/07/30 09:08:50;;;;;;;2.70;1.50;;;;;;;22.04;58.06;100352.50;4989997;28;20050;-44
2022/07/30 09:11:16;;;;;;;3.22;1.40;;;;;;;22.02;57.87;100351.72;4985905;28;20046;-43
2022/07/30 09:13:43;;;;;;;3.05;1.35;;;;;;;22.00;58.23;100348.31;4988704;28;20050;-45
2022/07/30 09:16:21;;;;;;;2.38;1.50;;;;;;;21.97;58.30;100348.44;4989929;28;20078;-42
2022/07/30 09:18:48;;;;;;;2.63;1.65;;;;;;;22.02;58.33;100354.34;4989019;28;20491;-44
2022/07/30 09:26:50;;;;;;;2.22;1.55;;;;;;;22.05;58.40;100367.41;5037924;28;20402;-42
2022/07/30 09:29:20;;;;;;;2.65;1.95;;;;;;;22.06;58.36;100358.56;5024881;28;20042;-45
2022/07/30 09:32:05;;;;;;;3.10;1.90;;;;;;;22.05;58.04;100358.63;5023720;28;20518;-47
2022/07/30 09:39:46;;;;;;;4.88;2.45;;;;;;;22.54;57.13;100358.13;5061498;28;20394;-44
2022/07/30 09:42:27;;;;;;;3.38;2.05;;;;;;;22.46;57.27;100355.00;5013802;28;20049;-42
2022/07/30 09:45:06;;;;;;;3.53;1.88;;;;;;;22.52;57.20;100354.69;5033561;28;20041;-44
2022/07/30 09:47:35;;;;;;;3.75;1.55;;;;;;;22.63;57.21;100361.25;5038138;28;20052;-44
2022/07/30 09:50:05;;;;;;;4.85;2.05;;;;;;;22.72;57.27;100355.53;5039612;28;20041;-48
2022/07/30 09:52:33;;;;;;;2.90;1.60;;;;;;;22.79;57.00;100356.06;5030104;28;20045;-46
2022/07/30 09:55:00;;;;;;;3.22;1.92;;;;;;;22.87;56.16;100361.84;5035546;28;20054;-46
2022/07/30 09:57:29;;;;;;;3.33;1.85;;;;;;;22.93;56.50;100365.97;5037483;28;20064;-43
2022/07/30 09:59:57;;;;;;;2.85;1.73;;;;;;;22.98;55.93;100361.31;5039328;28;20037;-46
2022/07/30 10:02:30;;;;;;;3.00;1.60;;;;;;;23.06;56.23;100359.13;5038088;28;20042;-47
2022/07/30 10:05:15;;;;;;;5.30;2.55;;;;;;;23.14;55.99;100360.53;5026155;28;20052;-49
2022/07/30 10:07:53;;;;;;;2.95;2.17;;;;;;;23.29;55.68;100359.75;5038366;28;20053;-49
2022/07/30 10:10:24;;;;;;;3.25;2.00;;;;;;;23.42;56.17;100353.84;5037878;28;20474;-45
2022/07/30 10:12:57;;;;;;;4.20;1.40;;;;;;;23.56;56.10;100351.34;5034637;28;20698;-45
2022/07/30 10:15:30;;;;;;;4.25;2.25;;;;;;;23.68;55.05;100349.88;5037793;28;20057;-44
2022/07/30 10:17:59;;;;;;;3.08;1.88;;;;;;;23.76;54.56;100346.78;5024498;28;20587;-47
2022/07/30 10:20:27;;;;;;;4.53;2.10;;;;;;;23.88;55.24;100351.41;5021096;28;20103;-45
2022/07/30 10:22:54;;;;;;;4.20;2.03;;;;;;;24.07;54.72;100342.47;5012875;28;20048;-42
2022/07/30 10:25:23;;;;;;;5.78;2.42;;;;;;;24.22;54.83;100345.25;5016619;28;20053;-44
2022/07/30 10:27:53;;;;;;;2.95;1.83;;;;;;;24.37;54.77;100346.19;5020594;28;20053;-44
2022/07/30 10:30:25;;;;;;;2.97;2.05;;;;;;;24.59;54.46;100343.16;5022471;28;20049;-43
2022/07/30 10:32:57;;;;;;;3.92;2.47;;;;;;;24.75;54.09;100348.44;5015015;28;20077;-47
2022/07/30 10:35:25;;;;;;;2.78;1.70;;;;;;;24.84;53.61;100344.41;5018808;28;20045;-43
2022/07/30 10:38:08;;;;;;;6.43;2.08;;;;;;;24.93;53.66;100347.50;5018586;28;20077;-42
2022/07/30 10:40:45;;;;;;;;;;;;;;;24.90;53.73;100354.66;5023066;28;20386;-44
2022/07/30 10:48:33;;;;;;;2.78;1.67;;;;;;;25.37;53.21;100353.75;5027745;28;21171;-47
2022/07/30 10:51:00;;;;;;;3.45;1.73;;;;;;;25.47;52.92;100351.38;5025816;28;20477;-48
2022/07/30 10:56:18;;;;;;;4.47;2.20;;;;;;;25.66;52.92;100354.66;5047747;27;20944;-47
2022/07/30 10:59:09;;;;;;;3.28;2.80;;;;;;;25.73;52.82;100351.63;5027145;28;20049;-49
2022/07/30 11:04:40;;;;;;;3.80;2.33;;;;;;;25.96;51.86;100349.31;5092890;27;20739;-45
2022/07/30 11:09:59;;;;;;;3.17;2.08;;;;;;;26.21;50.92;100355.72;5062354;27;20395;-45
2022/07/30 11:12:53;;;;;;;3.28;2.42;;;;;;;26.08;50.99;100345.91;5021876;28;20137;-48
2022/07/30 11:15:21;;;;;;;3.00;2.50;;;;;;;26.12;51.31;100350.06;5023138;28;20485;-46
2022/07/30 11:18:07;;;;;;;3.63;2.90;;;;;;;26.07;50.83;100346.00;5023107;28;20115;-45
2022/07/30 11:20:38;;;;;;;3.53;3.22;;;;;;;26.02;50.83;100346.28;5021226;28;20046;-46
2022/07/30 11:23:10;;;;;;;3.72;3.42;;;;;;;26.02;51.45;100346.28;5023591;28;20153;-44
2022/07/30 11:25:41;;;;;;;4.85;3.10;;;;;;;26.02;51.21;100351.59;5026410;28;20073;-43
2022/07/30 11:37:06;;;;;;;2.05;1.13;;;;;;;26.13;50.78;100343.78;5062201;27;20380;-43
2022/07/30 11:42:34;;;;;;;3.75;2.63;;;;;;;26.03;50.64;100346.19;5028362;28;20410;-44
2022/07/30 11:47:55;;;;;;;3.42;1.52;;;;;;;25.95;51.08;100345.81;5022192;27;20411;-47
2022/07/30 11:50:26;;;;;;;2.63;1.45;;;;;;;25.93;50.85;100348.56;5013963;28;20045;-45
2022/07/30 11:52:55;;;;;;;2.30;1.70;;;;;;;25.92;51.08;100353.97;5047829;28;20057;-49
2022/07/30 11:55:24;;;;;;;4.88;1.73;;;;;;;25.87;51.07;100358.72;5016420;28;20049;-47
2022/07/30 11:57:52;;;;;;;4.18;1.83;;;;;;;25.79;51.25;100351.22;5049918;28;20050;-46
2022/07/30 12:00:20;;;;;;;4.35;1.38;;;;;;;25.77;51.58;100342.53;5023829;28;20049;-49
2022/07/30 12:02:48;;;;;;;2.88;1.50;;;;;;;25.73;50.98;100359.59;5022320;28;20045;-48
2022/07/30 12:05:24;;;;;;;3.08;1.67;;;;;;;25.66;51.28;100349.34;5021393;28;20121;-45
2022/07/30 12:07:56;;;;;;;3.13;2.00;;;;;;;25.63;50.98;100352.19;5014814;28;20478;-49
2022/07/30 12:10:22;;;;;;;3.22;1.60;;;;;;;25.56;51.35;100361.41;5010680;28;20116;-44
2022/07/30 12:13:06;;;;;;;2.45;1.73;;;;;;;25.44;51.20;100362.16;5013145;28;20064;-48
2022/07/30 12:15:35;;;;;;;3.33;1.70;;;;;;;25.41;51.56;100358.78;5019914;28;20052;-46
2022/07/30 12:18:02;;;;;;;1.80;1.05;;;;;;;25.36;51.37;100355.53;5007333;28;20056;-43
2022/07/30 12:20:54;;;;;;;2.45;1.58;;;;;;;25.31;51.41;100357.63;4992235;28;21057;-48